Aviation Digital Data Service (ADDS)

Output produced by METARs form (1020 UTC 28 July 2014)
found at http://www.aviationweather.gov/adds/metars/
 
KILG 280951Z 00000KT 10SM CLR 20/19 A2957 RMK AO2 SLP010 T02000194 $
KILG 281018Z 2810/2906 VRB02KT P6SM SCT050 
     FM281300 28016G24KT P6SM BKN040 
     FM282300 30008KT P6SM SCT200